Time;durP1;ratioP1;P1;durP2;ratioP2;P2;SDS_P1;SDS_P2;PMS_P1;PMS_P2;Temp;Humidity;BMP_temperature;BMP_pressure;BME280_temperature;BME280_humidity;BME280_pressure;Samples;Min_cycle;Max_cycle;Signal;HPM_P1;HPM_P2
2021/04/26 00:00:43;;;;;;;22.98;5.60;;;;;;;4.79;62.65;102344.38;5107024;28;20039;-61
2021/04/26 00:03:09;;;;;;;21.55;5.50;;;;;;;4.69;62.93;102342.97;5104356;28;20389;-60
2021/04/26 00:05:34;;;;;;;22.98;5.43;;;;;;;4.59;63.34;102337.16;5107754;28;20051;-61
2021/04/26 00:08:00;;;;;;;22.73;5.18;;;;;;;4.64;62.90;102338.31;5104634;28;20498;-61
2021/04/26 00:10:26;;;;;;;22.25;5.25;;;;;;;4.57;63.62;102337.09;5106669;28;20032;-61
2021/04/26 00:12:51;;;;;;;21.85;5.70;;;;;;;4.57;63.50;102333.56;5105984;28;20023;-61
2021/04/26 00:15:19;;;;;;;21.10;5.53;;;;;;;4.63;63.38;102336.50;5105265;28;20501;-61
2021/04/26 00:17:46;;;;;;;23.35;5.47;;;;;;;4.53;63.06;102333.41;5106395;28;20588;-60
2021/04/26 00:20:12;;;;;;;20.65;5.30;;;;;;;4.46;63.39;102322.53;5104568;28;20027;-61
2021/04/26 00:22:38;;;;;;;22.83;5.57;;;;;;;4.39;63.79;102315.19;5107560;28;20496;-61
2021/04/26 00:25:06;;;;;;;23.83;5.50;;;;;;;4.31;63.99;102313.06;5104166;28;20055;-63
2021/04/26 00:27:33;;;;;;;21.60;5.50;;;;;;;4.32;64.52;102311.31;5107140;28;20488;-61
2021/04/26 00:29:59;;;;;;;20.88;5.40;;;;;;;4.22;64.51;102311.66;5104445;28;20107;-61
2021/04/26 00:32:24;;;;;;;24.38;5.65;;;;;;;4.19;64.38;102313.31;5105907;28;20100;-60
2021/04/26 00:34:49;;;;;;;23.75;5.78;;;;;;;4.14;64.78;102308.63;5106045;27;20024;-62
2021/04/26 00:37:15;;;;;;;21.90;5.03;;;;;;;4.09;64.91;102315.31;5104636;28;20020;-61
2021/04/26 00:39:40;;;;;;;22.75;5.88;;;;;;;4.08;64.89;102310.91;5107045;27;20100;-63
2021/04/26 00:42:05;;;;;;;24.23;7.07;;;;;;;4.07;64.80;102312.63;5103804;28;20024;-61
2021/04/26 00:44:31;;;;;;;22.13;5.60;;;;;;;3.91;65.50;102310.00;5106638;28;20016;-61
2021/04/26 00:46:56;;;;;;;22.23;5.40;;;;;;;3.92;65.37;102310.06;5104543;28;20473;-61
2021/04/26 00:49:21;;;;;;;22.13;5.45;;;;;;;3.84;65.71;102307.06;5105051;28;20063;-61
2021/04/26 00:51:47;;;;;;;21.92;5.60;;;;;;;3.83;65.67;102304.34;5105517;28;20032;-62
2021/04/26 00:54:12;;;;;;;20.92;5.57;;;;;;;3.88;64.96;102301.97;5104176;28;20031;-60
2021/04/26 00:56:38;;;;;;;20.58;5.32;;;;;;;3.77;65.12;102298.75;5106768;28;20071;-60
2021/04/26 00:59:03;;;;;;;21.08;5.55;;;;;;;3.78;65.47;102297.94;5103029;28;20165;-60
2021/04/26 01:01:29;;;;;;;21.58;5.35;;;;;;;3.69;65.87;102302.69;5106341;28;20162;-60
2021/04/26 01:03:54;;;;;;;22.35;5.43;;;;;;;3.69;65.71;102297.44;5104514;27;20023;-60
2021/04/26 01:06:19;;;;;;;22.40;5.40;;;;;;;3.62;66.03;102289.25;5104643;28;20052;-60
2021/04/26 01:08:45;;;;;;;20.48;5.63;;;;;;;3.58;65.69;102286.38;5105810;27;20124;-60
2021/04/26 01:11:11;;;;;;;23.17;6.60;;;;;;;3.54;66.26;102280.09;5103377;28;20055;-60
2021/04/26 01:13:36;;;;;;;20.40;5.50;;;;;;;3.56;66.06;102280.16;5106626;28;20027;-60
2021/04/26 01:16:12;;;;;;;21.33;5.07;;;;;;;3.59;65.44;102283.84;5103295;28;20356;-60
2021/04/26 01:19:02;;;;;;;22.20;5.68;;;;;;;3.48;65.13;102277.09;5099381;28;20070;-60
2021/04/26 01:22:01;;;;;;;20.58;5.10;;;;;;;3.41;64.88;102278.50;5104447;28;20024;-60
2021/04/26 01:25:00;;;;;;;20.52;5.30;;;;;;;3.37;65.55;102273.00;5104492;28;20036;-60
2021/04/26 01:27:41;;;;;;;21.23;5.63;;;;;;;3.29;65.92;102264.72;5104381;28;20028;-60
2021/04/26 01:30:21;;;;;;;21.77;5.40;;;;;;;3.25;65.67;102266.25;5099060;28;20055;-60
2021/04/26 01:33:01;;;;;;;21.17;5.78;;;;;;;3.26;65.62;102269.78;5101530;28;20024;-60
2021/04/26 01:35:28;;;;;;;21.60;5.50;;;;;;;3.22;66.30;102267.78;5103681;28;20039;-60
2021/04/26 01:38:16;;;;;;;22.55;5.78;;;;;;;3.24;65.28;102258.34;5104570;28;20047;-60
2021/04/26 01:40:43;;;;;;;22.00;5.78;;;;;;;3.11;66.41;102256.72;5099527;28;20028;-60
2021/04/26 01:43:10;;;;;;;21.33;5.20;;;;;;;3.09;66.48;102251.41;5105596;28;20466;-61
2021/04/26 01:45:37;;;;;;;21.13;5.60;;;;;;;3.07;66.67;102254.75;5102672;28;20020;-61
2021/04/26 01:48:03;;;;;;;22.73;5.53;;;;;;;3.02;66.90;102253.59;5105826;28;20463;-61
2021/04/26 01:50:29;;;;;;;19.60;5.80;;;;;;;2.98;67.20;102242.06;5102793;28;20168;-61
2021/04/26 01:52:56;;;;;;;22.73;6.07;;;;;;;2.90;67.50;102243.34;5104493;28;20387;-61
2021/04/26 01:55:23;;;;;;;22.80;5.93;;;;;;;2.84;67.54;102241.28;5103791;28;20028;-61
2021/04/26 01:57:49;;;;;;;19.70;5.43;;;;;;;2.87;67.69;102243.16;5103184;28;20020;-60
2021/04/26 02:00:21;;;;;;;22.63;5.50;;;;;;;2.81;67.85;102243.72;5103851;28;20050;-60
2021/04/26 02:02:48;;;;;;;22.85;5.80;;;;;;;2.85;67.53;102247.41;5103158;28;20016;-61
2021/04/26 02:05:14;;;;;;;19.67;5.45;;;;;;;2.81;67.03;102251.56;5104652;28;20057;-61
2021/04/26 02:07:42;;;;;;;20.83;5.32;;;;;;;2.80;67.33;102257.56;5102045;28;20071;-60
2021/04/26 02:10:10;;;;;;;22.02;6.00;;;;;;;2.68;67.77;102251.63;5105553;28;20081;-61
2021/04/26 02:12:37;;;;;;;22.40;7.28;;;;;;;2.74;67.35;102242.44;5097651;28;20031;-61
2021/04/26 02:15:08;;;;;;;23.88;6.53;;;;;;;2.68;67.95;102246.41;5105234;28;20066;-60
2021/04/26 02:17:35;;;;;;;23.35;5.93;;;;;;;2.56;68.11;102241.34;5097858;28;20028;-61
2021/04/26 02:20:00;;;;;;;21.02;5.93;;;;;;;2.57;67.85;102244.06;5104704;28;20098;-61
2021/04/26 02:22:26;;;;;;;19.00;5.55;;;;;;;2.50;68.40;102233.16;5102629;28;20030;-61
2021/04/26 02:24:51;;;;;;;20.67;6.07;;;;;;;2.43;68.86;102235.41;5103821;28;20024;-60
2021/04/26 02:27:17;;;;;;;23.35;6.20;;;;;;;2.43;68.34;102235.41;5103730;28;20047;-61
2021/04/26 02:29:42;;;;;;;21.90;6.28;;;;;;;2.38;68.80;102233.34;5102172;28;20028;-63
2021/04/26 02:32:15;;;;;;;21.50;6.18;;;;;;;2.44;68.54;102233.69;5104954;28;20061;-61
2021/04/26 02:34:46;;;;;;;21.95;6.38;;;;;;;2.33;68.49;102237.38;5096919;28;20028;-61
2021/04/26 02:37:22;;;;;;;19.63;5.68;;;;;;;2.37;68.76;102228.91;5104480;28;20102;-61
2021/04/26 02:39:48;;;;;;;21.40;6.05;;;;;;;2.35;68.58;102226.22;5102658;28;20031;-60
2021/04/26 02:42:17;;;;;;;20.80;5.78;;;;;;;2.29;68.90;102225.84;5104207;28;20541;-62
2021/04/26 02:44:45;;;;;;;19.63;5.78;;;;;;;2.22;69.22;102219.34;5101754;28;20039;-60
2021/04/26 02:47:16;;;;;;;20.65;6.07;;;;;;;2.17;69.36;102219.88;5104720;28;20028;-60
2021/04/26 02:49:45;;;;;;;23.00;6.07;;;;;;;2.13;69.40;102216.19;5101897;28;20020;-61
2021/04/26 02:52:12;;;;;;;23.35;6.40;;;;;;;2.06;69.64;102217.53;5104823;28;20036;-61
2021/04/26 02:54:38;;;;;;;21.52;6.45;;;;;;;2.08;69.76;102215.94;5101169;28;20020;-61
2021/04/26 02:57:04;;;;;;;21.48;6.53;;;;;;;2.08;69.57;102215.94;5104743;28;20104;-62
2021/04/26 02:59:32;;;;;;;20.50;6.45;;;;;;;1.91;70.19;102211.38;5101806;28;20032;-61
2021/04/26 03:01:58;;;;;;;20.92;6.60;;;;;;;1.95;70.33;102213.34;5103674;28;20024;-62
2021/04/26 03:04:24;;;;;;;22.25;6.70;;;;;;;1.91;70.35;102204.44;5103352;28;20038;-62
2021/04/26 03:06:52;;;;;;;22.42;7.00;;;;;;;1.87;70.30;102206.78;5102346;28;20131;-62
2021/04/26 03:09:18;;;;;;;23.00;6.93;;;;;;;1.83;70.17;102197.84;5103570;28;20019;-62
2021/04/26 03:11:45;;;;;;;22.83;6.30;;;;;;;1.80;70.74;102196.78;5104111;28;20032;-62
2021/04/26 03:14:11;;;;;;;20.50;6.30;;;;;;;1.76;70.70;102187.84;5108765;28;20035;-61
2021/04/26 03:16:37;;;;;;;22.23;6.50;;;;;;;1.85;70.21;102182.31;5105481;28;20028;-61
2021/04/26 03:19:05;;;;;;;21.90;6.70;;;;;;;1.77;70.36;102187.06;5108562;28;20028;-61
2021/04/26 03:21:31;;;;;;;20.65;6.28;;;;;;;1.81;70.00;102188.16;5105671;28;20032;-61
2021/04/26 03:23:57;;;;;;;21.27;7.10;;;;;;;1.74;70.29;102186.88;5107616;28;20438;-61
2021/04/26 03:26:23;;;;;;;23.52;6.70;;;;;;;1.71;70.85;102184.06;5106989;28;20059;-61
2021/04/26 03:28:49;;;;;;;22.90;7.00;;;;;;;1.69;70.66;102178.78;5106154;28;20024;-61
2021/04/26 03:31:14;;;;;;;22.52;6.80;;;;;;;1.62;71.07;102181.81;5107775;28;20027;-61
2021/04/26 03:33:40;;;;;;;22.20;6.78;;;;;;;1.69;71.04;102172.63;5105324;28;20036;-61
2021/04/26 03:36:06;;;;;;;24.88;6.40;;;;;;;1.57;71.04;102167.56;5108292;28;20470;-60
2021/04/26 03:38:32;;;;;;;23.63;6.90;;;;;;;1.50;71.35;102168.91;5104975;28;20024;-60
2021/04/26 03:40:59;;;;;;;21.60;6.47;;;;;;;1.54;70.96;102167.38;5107591;28;20028;-60
2021/04/26 03:43:25;;;;;;;23.65;6.57;;;;;;;1.42;71.68;102164.03;5106429;28;20066;-61
2021/04/26 03:45:54;;;;;;;22.10;6.72;;;;;;;1.46;71.47;102171.25;5106328;28;20035;-60
2021/04/26 03:48:19;;;;;;;22.75;7.03;;;;;;;1.42;71.41;102157.09;5106994;28;20035;-60
2021/04/26 03:50:45;;;;;;;23.73;7.28;;;;;;;1.39;71.81;102177.75;5105090;28;20028;-60
2021/04/26 03:53:10;;;;;;;22.02;6.90;;;;;;;1.43;71.60;102171.94;5107948;28;20027;-60
2021/04/26 03:55:36;;;;;;;22.63;7.50;;;;;;;1.37;71.80;102175.06;5104710;28;20116;-60
2021/04/26 03:58:01;;;;;;;22.30;6.97;;;;;;;1.39;71.61;102177.75;5107321;28;20031;-60
2021/04/26 04:00:27;;;;;;;21.20;6.55;;;;;;;1.31;71.55;102174.69;5105912;28;20076;-60
2021/04/26 04:02:52;;;;;;;22.65;7.03;;;;;;;1.28;71.77;102174.50;5106049;28;20352;-60
2021/04/26 04:05:18;;;;;;;22.00;7.03;;;;;;;1.32;72.05;102173.84;5106719;28;20088;-60
2021/04/26 04:07:43;;;;;;;21.25;6.55;;;;;;;1.26;71.92;102173.47;5104745;28;20058;-59
2021/04/26 04:10:12;;;;;;;21.20;7.10;;;;;;;1.15;72.85;102164.97;5107540;28;20023;-60
2021/04/26 04:12:38;;;;;;;22.10;7.18;;;;;;;1.24;72.24;102166.34;5100466;28;20032;-60
2021/04/26 04:15:05;;;;;;;23.63;7.13;;;;;;;1.15;72.43;102154.56;5107477;28;20028;-60
2021/04/26 04:17:30;;;;;;;23.48;7.38;;;;;;;1.17;72.57;102154.66;5104480;28;20032;-61
2021/04/26 04:19:56;;;;;;;23.80;6.97;;;;;;;1.21;72.39;102159.28;5104945;28;20031;-61
2021/04/26 04:22:21;;;;;;;22.58;7.13;;;;;;;1.09;72.78;102159.34;5104903;28;20023;-61
2021/04/26 04:24:47;;;;;;;24.05;7.35;;;;;;;1.08;72.98;102167.06;5104749;28;20066;-61
2021/04/26 04:27:12;;;;;;;23.70;7.32;;;;;;;1.08;72.77;102161.88;5105740;28;20063;-61
2021/04/26 04:29:38;;;;;;;23.02;7.07;;;;;;;1.17;72.27;102162.47;5104302;28;20055;-61
2021/04/26 04:32:05;;;;;;;22.92;7.18;;;;;;;1.11;72.73;102157.78;5106965;28;20038;-61
2021/04/26 04:34:30;;;;;;;24.45;7.20;;;;;;;1.10;72.46;102157.69;5104658;28;20024;-61
2021/04/26 04:36:57;;;;;;;22.95;7.40;;;;;;;1.08;73.03;102159.25;5105993;28;20470;-61
2021/04/26 04:39:22;;;;;;;23.88;7.10;;;;;;;1.12;72.55;102161.25;5105329;28;20458;-61
2021/04/26 04:41:47;;;;;;;23.05;7.95;;;;;;;1.06;72.80;102158.28;5104589;28;20175;-61
2021/04/26 04:44:13;;;;;;;25.08;7.90;;;;;;;1.11;72.86;102159.50;5106812;28;20020;-61
2021/04/26 04:46:38;;;;;;;25.42;9.00;;;;;;;1.16;72.69;102163.28;5103305;28;20028;-61
2021/04/26 04:49:03;;;;;;;24.13;9.13;;;;;;;1.14;72.83;102160.56;5106799;28;20028;-61
2021/04/26 04:51:29;;;;;;;25.75;9.13;;;;;;;1.20;72.81;102160.94;5104452;28;20030;-61
2021/04/26 04:53:56;;;;;;;24.27;8.45;;;;;;;1.25;72.55;102158.63;5105252;28;20070;-61
2021/04/26 04:56:21;;;;;;;22.98;8.20;;;;;;;1.34;72.46;102168.72;5105393;28;20031;-61
2021/04/26 04:58:47;;;;;;;23.38;8.65;;;;;;;1.27;72.54;102163.94;5104365;28;20016;-61
2021/04/26 05:01:12;;;;;;;25.63;10.20;;;;;;;1.36;72.39;102161.94;5106474;28;20035;-60
2021/04/26 05:03:38;;;;;;;26.75;10.55;;;;;;;1.38;72.16;102157.69;5103376;28;20032;-60
2021/04/26 05:06:03;;;;;;;26.52;11.68;;;;;;;1.36;72.47;102159.31;5105992;28;20054;-60
2021/04/26 05:08:29;;;;;;;23.23;9.55;;;;;;;1.46;71.91;102153.00;5104350;28;20166;-60
2021/04/26 05:10:54;;;;;;;21.60;7.70;;;;;;;1.52;71.96;102150.75;5104737;28;20028;-60
2021/04/26 05:13:19;;;;;;;23.40;7.97;;;;;;;1.50;72.06;102154.97;5105236;28;20032;-60
2021/04/26 05:15:45;;;;;;;22.58;7.45;;;;;;;1.60;72.32;102146.00;5103606;28;20470;-61
2021/04/26 05:18:10;;;;;;;23.90;7.80;;;;;;;1.68;71.61;102152.59;5106524;28;20031;-60
2021/04/26 05:20:40;;;;;;;22.35;7.30;;;;;;;1.73;71.61;102154.69;5098687;28;20054;-60
2021/04/26 05:23:05;;;;;;;22.90;7.55;;;;;;;1.78;71.28;102152.34;5106184;28;20058;-60
2021/04/26 05:25:31;;;;;;;23.60;7.90;;;;;;;1.79;71.51;102155.84;5103452;28;20028;-60
2021/04/26 05:27:56;;;;;;;24.55;8.27;;;;;;;1.78;71.14;102154.03;5104950;28;20028;-60
2021/04/26 05:30:22;;;;;;;24.40;8.00;;;;;;;1.90;70.72;102150.47;5104480;28;20034;-60
2021/04/26 05:32:47;;;;;;;24.58;7.80;;;;;;;1.95;70.55;102155.97;5103714;28;20035;-60
2021/04/26 05:35:12;;;;;;;23.73;8.18;;;;;;;1.97;70.50;102156.97;5105618;28;20032;-60
2021/04/26 05:37:38;;;;;;;24.73;8.40;;;;;;;2.08;70.62;102152.41;5102502;28;20102;-60
2021/04/26 05:40:04;;;;;;;24.98;7.75;;;;;;;2.13;70.05;102156.19;5096616;28;20027;-61
2021/04/26 05:42:29;;;;;;;24.92;8.05;;;;;;;2.22;69.71;102161.06;5099677;28;20024;-60
2021/04/26 05:44:54;;;;;;;25.40;8.25;;;;;;;2.29;69.62;102157.06;5103676;28;20465;-60
2021/04/26 05:47:20;;;;;;;23.13;7.53;;;;;;;2.32;69.33;102160.78;5104954;28;20027;-60
2021/04/26 05:49:45;;;;;;;22.95;7.45;;;;;;;2.43;68.93;102157.09;5102310;28;20020;-60
2021/04/26 05:52:11;;;;;;;23.85;7.43;;;;;;;2.42;69.36;102155.28;5104399;28;20036;-60
2021/04/26 05:54:36;;;;;;;22.05;7.82;;;;;;;2.51;69.38;102154.94;5101678;28;20031;-60
2021/04/26 05:57:01;;;;;;;22.73;7.65;;;;;;;2.55;68.51;102143.84;5103648;28;20071;-60
2021/04/26 05:59:27;;;;;;;25.50;8.38;;;;;;;2.65;69.48;102145.31;5100805;28;20750;-59
2021/04/26 06:01:52;;;;;;;24.52;8.65;;;;;;;2.69;68.59;102149.84;5104877;28;20031;-59
2021/04/26 06:04:17;;;;;;;22.38;7.70;;;;;;;2.80;69.20;102155.72;5103686;28;20023;-59
2021/04/26 06:06:43;;;;;;;23.55;7.93;;;;;;;2.83;69.39;102149.78;5102738;28;20493;-59
2021/04/26 06:09:08;;;;;;;22.77;8.23;;;;;;;2.88;69.22;102145.69;5103691;28;20023;-59
2021/04/26 06:11:33;;;;;;;23.65;7.85;;;;;;;2.96;68.73;102150.53;5104004;28;20043;-59
2021/04/26 06:13:59;;;;;;;23.17;7.70;;;;;;;3.02;68.00;102149.97;5104364;28;20037;-62
2021/04/26 06:16:24;;;;;;;22.35;7.80;;;;;;;3.10;66.98;102153.94;5100979;28;20107;-62
2021/04/26 06:18:49;;;;;;;21.30;7.35;;;;;;;3.20;67.68;102147.47;5104491;28;20049;-61
2021/04/26 06:21:15;;;;;;;23.35;7.95;;;;;;;3.27;67.22;102147.00;5103669;28;20028;-61
2021/04/26 06:23:40;;;;;;;24.17;8.32;;;;;;;3.27;66.59;102140.88;5104463;28;20058;-62
2021/04/26 06:26:05;;;;;;;22.60;7.95;;;;;;;3.36;66.73;102138.75;5103677;28;20016;-62
2021/04/26 06:28:31;;;;;;;22.35;7.90;;;;;;;3.49;66.31;102138.63;5103505;28;20055;-61
2021/04/26 06:30:56;;;;;;;21.52;7.35;;;;;;;3.56;65.48;102136.34;5100664;28;20047;-62
2021/04/26 06:33:22;;;;;;;23.30;7.18;;;;;;;3.71;66.20;102141.47;5103144;28;20076;-62
2021/04/26 06:35:52;;;;;;;21.85;7.70;;;;;;;3.81;66.50;102135.91;5102293;28;20370;-60
2021/04/26 06:38:18;;;;;;;23.30;7.55;;;;;;;3.95;65.94;102144.50;5098950;28;20032;-62
2021/04/26 06:40:44;;;;;;;20.92;7.05;;;;;;;4.07;65.55;102145.13;5105057;28;20031;-62
2021/04/26 06:43:10;;;;;;;22.65;7.25;;;;;;;4.14;64.81;102146.34;5097554;28;20043;-62
2021/04/26 06:45:35;;;;;;;20.08;6.93;;;;;;;4.16;63.30;102140.34;5091454;28;20027;-61
2021/04/26 06:48:01;;;;;;;24.52;8.20;;;;;;;4.27;63.67;102145.25;5101340;28;20103;-61
2021/04/26 06:50:27;;;;;;;22.13;7.97;;;;;;;4.39;63.16;102139.75;5098311;28;20042;-62
2021/04/26 06:52:55;;;;;;;22.65;7.50;;;;;;;4.43;62.58;102139.97;5097456;28;20444;-61
2021/04/26 06:55:21;;;;;;;20.92;7.25;;;;;;;4.51;62.10;102137.72;5099480;28;20038;-61
2021/04/26 06:57:47;;;;;;;21.58;7.18;;;;;;;4.65;63.00;102138.41;5095700;28;20031;-61
2021/04/26 07:00:13;;;;;;;21.92;7.45;;;;;;;4.80;62.48;102130.41;5099341;28;20395;-61
2021/04/26 07:02:39;;;;;;;22.65;7.32;;;;;;;4.91;61.64;102129.22;5095732;28;20043;-61
2021/04/26 07:05:06;;;;;;;24.10;7.40;;;;;;;4.98;61.14;102128.69;5098258;28;20409;-61
2021/04/26 07:07:31;;;;;;;21.55;7.47;;;;;;;5.06;61.87;102129.03;5090945;28;20052;-61
2021/04/26 07:09:56;;;;;;;23.23;7.30;;;;;;;5.08;60.51;102127.38;5098128;28;20516;-61
2021/04/26 07:12:22;;;;;;;21.88;7.40;;;;;;;5.16;60.06;102120.78;5094023;28;20470;-61
2021/04/26 07:14:47;;;;;;;21.08;7.20;;;;;;;5.22;59.67;102118.44;5100929;28;20466;-61
2021/04/26 07:17:12;;;;;;;21.73;7.50;;;;;;;5.30;59.48;102115.25;5101486;28;20024;-61
2021/04/26 07:19:38;;;;;;;25.05;8.18;;;;;;;5.46;60.71;102115.16;5100980;28;20031;-61
2021/04/26 07:22:04;;;;;;;22.85;7.30;;;;;;;5.60;60.88;102115.75;5102991;28;20015;-61
2021/04/26 07:24:30;;;;;;;20.75;7.40;;;;;;;5.66;59.98;102112.53;5099940;28;20467;-62
2021/04/26 07:26:55;;;;;;;24.63;7.70;;;;;;;5.74;59.10;102111.16;5103337;28;20048;-61
2021/04/26 07:29:21;;;;;;;21.95;7.30;;;;;;;5.79;58.61;102108.72;5093004;28;20077;-60
2021/04/26 07:31:46;;;;;;;28.23;8.18;;;;;;;5.88;58.16;102112.66;5093146;28;20130;-61
2021/04/26 07:34:12;;;;;;;23.02;8.07;;;;;;;5.98;57.59;102106.09;5096893;28;20398;-60
2021/04/26 07:36:37;;;;;;;21.92;7.28;;;;;;;6.06;57.42;102111.69;5092650;28;20035;-60
2021/04/26 07:39:04;;;;;;;21.75;7.57;;;;;;;6.18;57.75;102109.56;5093327;28;20020;-63
2021/04/26 07:41:30;;;;;;;23.55;7.30;;;;;;;6.19;55.88;102111.38;5095720;28;20160;-62
2021/04/26 07:43:55;;;;;;;22.80;7.70;;;;;;;6.29;55.85;102104.75;5090583;28;20082;-61
2021/04/26 07:46:21;;;;;;;23.95;8.65;;;;;;;6.41;56.38;102109.66;5091570;28;20028;-61
2021/04/26 07:48:46;;;;;;;21.45;7.38;;;;;;;6.52;56.50;102108.34;5095030;28;20032;-62
2021/04/26 07:51:12;;;;;;;22.02;7.45;;;;;;;6.69;56.32;102113.41;5102286;28;20028;-61
2021/04/26 07:53:37;;;;;;;21.85;7.50;;;;;;;6.81;55.09;102098.13;5097775;28;20032;-62
2021/04/26 07:56:03;;;;;;;21.98;7.25;;;;;;;6.92;54.47;102102.09;5102308;28;20045;-62
2021/04/26 07:58:29;;;;;;;21.77;7.60;;;;;;;7.04;54.51;102101.66;5105396;28;20020;-63
2021/04/26 08:00:54;;;;;;;24.35;7.43;;;;;;;7.13;52.61;102099.38;5106182;28;20126;-63
2021/04/26 08:03:20;;;;;;;21.55;7.38;;;;;;;7.30;53.41;102097.41;5106201;28;20032;-63
2021/04/26 08:05:45;;;;;;;21.60;7.13;;;;;;;7.45;52.54;102104.06;5104965;28;20016;-63
2021/04/26 08:08:11;;;;;;;20.77;7.43;;;;;;;7.58;52.89;102095.78;5107049;28;20031;-63
2021/04/26 08:10:37;;;;;;;23.42;7.90;;;;;;;7.95;51.97;102098.84;5104127;28;20024;-63
2021/04/26 08:13:02;;;;;;;23.08;7.90;;;;;;;8.80;49.58;102091.16;5107276;28;20466;-64
2021/04/26 08:15:28;;;;;;;22.15;7.10;;;;;;;9.71;47.30;102094.75;5104720;28;20027;-63
2021/04/26 08:17:53;;;;;;;22.50;7.65;;;;;;;10.50;45.49;102095.91;5099126;28;20047;-63
2021/04/26 08:20:19;;;;;;;22.52;7.57;;;;;;;11.10;44.19;102092.03;5100997;28;20024;-63
2021/04/26 08:22:45;;;;;;;22.58;7.40;;;;;;;11.62;42.93;102100.16;5102693;28;20020;-62
2021/04/26 08:25:11;;;;;;;21.83;7.07;;;;;;;12.00;41.05;102097.41;5103865;28;20026;-62
2021/04/26 08:27:36;;;;;;;21.48;7.55;;;;;;;12.13;39.93;102088.78;5103857;28;20043;-64
2021/04/26 08:30:05;;;;;;;21.10;6.80;;;;;;;12.21;39.07;102086.25;5098610;28;20485;-63
2021/04/26 08:32:30;;;;;;;24.33;6.82;;;;;;;12.76;39.01;102088.03;5099201;28;20028;-64
2021/04/26 08:34:55;;;;;;;21.33;6.60;;;;;;;13.20;37.08;102079.81;5101923;28;20028;-64
2021/04/26 08:37:21;;;;;;;22.95;7.05;;;;;;;13.37;36.02;102080.06;5099013;28;20466;-65
2021/04/26 08:39:47;;;;;;;22.58;7.05;;;;;;;13.67;37.35;102075.97;5102026;28;20034;-65
2021/04/26 08:42:16;;;;;;;21.50;6.60;;;;;;;14.41;36.71;102082.88;5100490;28;20042;-64
2021/04/26 08:44:42;;;;;;;22.13;6.82;;;;;;;14.92;34.61;102077.06;5099665;28;20558;-64
2021/04/26 08:47:09;;;;;;;23.00;7.10;;;;;;;15.52;33.06;102074.66;5102530;28;20102;-64
2021/04/26 08:49:34;;;;;;;20.77;6.80;;;;;;;15.87;33.13;102076.56;5101080;28;20482;-64
2021/04/26 08:52:00;;;;;;;22.17;6.75;;;;;;;16.24;30.82;102076.63;5098997;28;20031;-64
2021/04/26 08:54:25;;;;;;;22.45;7.07;;;;;;;16.37;30.12;102067.72;5093699;28;20024;-64
2021/04/26 08:56:51;;;;;;;21.25;6.45;;;;;;;16.64;30.65;102071.22;5094164;28;20020;-64
2021/04/26 08:59:16;;;;;;;21.42;6.68;;;;;;;17.00;30.77;102066.75;5093074;28;20012;-65
2021/04/26 09:01:57;;;;;;;21.95;6.50;;;;;;;16.50;30.00;102057.03;5091145;28;20354;-64
2021/04/26 09:04:22;;;;;;;21.17;6.65;;;;;;;16.44;29.76;102062.38;5093507;28;20073;-65
2021/04/26 09:07:00;;;;;;;21.00;6.80;;;;;;;16.92;31.02;102046.28;5092718;28;20032;-64
2021/04/26 09:09:39;;;;;;;19.73;6.32;;;;;;;17.00;29.61;102050.72;5095805;28;20032;-66
2021/04/26 09:12:10;;;;;;;21.00;6.80;;;;;;;16.20;30.39;102045.47;5099113;28;20028;-65
2021/04/26 09:14:41;;;;;;;20.67;6.40;;;;;;;15.38;31.06;102049.75;5094697;28;20024;-63
2021/04/26 09:17:26;;;;;;;22.00;6.30;;;;;;;15.21;32.58;102047.91;5089732;28;20024;-63
2021/04/26 09:19:52;;;;;;;20.42;6.10;;;;;;;15.45;26.95;102046.22;5093441;28;20024;-63
2021/04/26 09:22:38;;;;;;;20.70;6.40;;;;;;;16.47;29.03;102035.66;5099518;28;20446;-63
2021/04/26 09:25:33;;;;;;;21.80;7.13;;;;;;;17.44;27.84;102038.06;5100261;28;20024;-63
2021/04/26 09:28:17;;;;;;;20.88;6.38;;;;;;;17.46;27.01;102040.72;5096594;28;20016;-65
2021/04/26 09:31:02;;;;;;;18.38;5.95;;;;;;;17.45;25.02;102041.66;5094490;28;20036;-65
2021/04/26 09:33:34;;;;;;;19.10;5.95;;;;;;;18.32;24.49;102029.44;5096779;28;20028;-65
2021/04/26 09:36:12;;;;;;;19.20;5.95;;;;;;;18.93;22.64;102027.97;5098503;28;20216;-63
2021/04/26 09:38:43;;;;;;;18.55;6.10;;;;;;;19.38;23.71;102030.03;5099788;28;20467;-64
2021/04/26 09:41:20;;;;;;;18.65;6.03;;;;;;;19.47;22.77;102031.72;5100610;28;20084;-63
2021/04/26 09:43:48;;;;;;;19.65;6.30;;;;;;;19.95;22.37;102028.34;5098921;28;20034;-63
2021/04/26 09:46:14;;;;;;;21.15;6.53;;;;;;;20.76;20.87;102007.25;5096049;28;20024;-63
2021/04/26 09:48:40;;;;;;;18.42;6.05;;;;;;;21.31;19.95;102012.38;5099478;28;20028;-65
2021/04/26 09:51:17;;;;;;;20.65;6.32;;;;;;;21.23;21.16;102009.84;5099137;28;20129;-65
2021/04/26 09:53:42;;;;;;;20.40;6.13;;;;;;;21.55;21.90;102013.66;5099267;28;20096;-65
2021/04/26 09:56:16;;;;;;;18.30;6.10;;;;;;;21.91;20.58;102017.25;5102823;28;20514;-63
2021/04/26 09:58:44;;;;;;;18.67;5.95;;;;;;;21.72;18.84;102010.56;5098048;28;20028;-61
2021/04/26 10:01:10;;;;;;;20.15;6.28;;;;;;;22.26;18.90;101996.63;5096205;28;20077;-63
2021/04/26 10:03:36;;;;;;;19.88;6.32;;;;;;;22.39;18.86;101994.53;5098127;28;20016;-62
2021/04/26 10:06:02;;;;;;;19.27;5.97;;;;;;;22.59;19.41;101996.69;5104083;28;20032;-62
2021/04/26 10:08:27;;;;;;;19.88;6.18;;;;;;;22.53;18.53;101993.25;5100087;28;20088;-62
2021/04/26 10:10:53;;;;;;;21.50;6.65;;;;;;;22.68;18.87;101994.66;5103803;28;20156;-61
2021/04/26 10:13:23;;;;;;;18.40;6.00;;;;;;;23.44;18.04;101994.19;5102477;28;20032;-61
2021/04/26 10:15:57;;;;;;;19.42;6.00;;;;;;;23.75;18.56;101986.94;5100955;28;20020;-62
2021/04/26 10:18:29;;;;;;;19.08;6.05;;;;;;;23.12;18.69;101987.13;5102819;28;20024;-62
2021/04/26 10:20:55;;;;;;;19.95;6.43;;;;;;;23.40;17.32;101981.75;5097953;28;20027;-62
2021/04/26 10:23:39;;;;;;;21.55;6.20;;;;;;;24.13;17.92;101969.47;5106712;28;20023;-61
2021/04/26 10:26:05;;;;;;;19.30;6.40;;;;;;;24.49;16.66;101963.69;5102455;28;20123;-62
2021/04/26 10:28:36;;;;;;;19.83;6.20;;;;;;;24.79;16.70;101962.66;5105310;28;20094;-62
2021/04/26 10:31:13;;;;;;;20.60;5.97;;;;;;;24.70;17.77;101962.03;5104445;28;20039;-62
2021/04/26 10:34:00;;;;;;;19.73;6.15;;;;;;;24.56;17.32;101940.00;5097826;28;20028;-62
2021/04/26 10:36:40;;;;;;;22.35;6.35;;;;;;;23.97;18.67;101949.31;5101660;28;20024;-61
2021/04/26 10:39:14;;;;;;;19.42;6.20;;;;;;;23.75;18.66;101951.84;5101202;28;20024;-62
2021/04/26 10:42:01;;;;;;;19.13;6.05;;;;;;;24.41;17.08;101951.41;5098090;28;20032;-62
2021/04/26 10:44:38;;;;;;;18.52;5.97;;;;;;;25.47;16.54;101943.75;5102694;28;20067;-62
2021/04/26 10:47:17;;;;;;;18.60;5.60;;;;;;;25.11;15.84;101936.19;5101470;28;20078;-62
2021/04/26 10:49:44;;;;;;;20.40;6.40;;;;;;;25.14;15.99;101938.75;5098520;28;20032;-62
2021/04/26 10:52:28;;;;;;;18.83;6.05;;;;;;;25.43;16.51;101931.34;5104742;28;20031;-63
2021/04/26 10:54:55;;;;;;;19.48;6.20;;;;;;;24.78;16.78;101936.53;5101179;28;20020;-62
2021/04/26 10:57:49;;;;;;;19.10;6.05;;;;;;;25.72;16.61;101927.41;5103810;28;20414;-63
2021/04/26 11:00:27;;;;;;;19.23;6.18;;;;;;;25.97;15.19;101921.78;5099205;28;20034;-62
2021/04/26 11:02:53;;;;;;;18.33;6.10;;;;;;;26.60;14.78;101920.84;5103343;28;20427;-63
2021/04/26 11:05:22;;;;;;;18.45;6.22;;;;;;;26.83;14.63;101924.34;5102186;28;20027;-63
2021/04/26 11:08:00;;;;;;;19.27;6.18;;;;;;;26.72;14.61;101914.88;5103383;28;20448;-62
2021/04/26 11:10:29;;;;;;;19.52;6.20;;;;;;;26.66;15.40;101914.25;5103262;28;20141;-62
2021/04/26 11:12:56;;;;;;;19.40;6.30;;;;;;;27.02;13.79;101908.94;5103065;28;20031;-62
2021/04/26 11:15:23;;;;;;;18.65;6.20;;;;;;;27.40;13.81;101900.75;5101151;28;20418;-63
2021/04/26 11:17:49;;;;;;;19.27;6.00;;;;;;;27.02;13.50;101899.94;5103567;28;20057;-62
2021/04/26 11:20:18;;;;;;;20.10;6.55;;;;;;;27.24;14.56;101888.91;5101606;28;20044;-62
2021/04/26 11:22:44;;;;;;;19.35;6.15;;;;;;;28.28;13.34;101881.78;5103928;28;20027;-62
2021/04/26 11:25:29;;;;;;;19.83;6.40;;;;;;;28.60;14.06;101890.00;5100964;28;20031;-62